createdAt,value
2022-11-29T00:01:17.210Z,8.73
2022-11-29T00:03:44.425Z,8.80
2022-11-29T00:06:16.285Z,7.47
2022-11-29T00:08:43.628Z,6.83
2022-11-29T00:11:12.492Z,6.87
2022-11-29T00:13:39.659Z,6.80
2022-11-29T00:16:10.858Z,6.23
2022-11-29T00:18:38.119Z,7.10
2022-11-29T00:21:08.904Z,7.07
2022-11-29T00:23:36.274Z,8.30
2022-11-29T00:26:04.997Z,8.53
2022-11-29T00:28:32.224Z,8.87
2022-11-29T00:30:59.432Z,8.77
2022-11-29T00:33:26.896Z,9.70
2022-11-29T00:35:54.045Z,8.77
2022-11-29T00:38:21.266Z,9.27
2022-11-29T00:40:52.559Z,10.10
2022-11-29T00:43:19.759Z,8.80
2022-11-29T00:45:46.856Z,9.43
2022-11-29T00:48:14.061Z,9.43
2022-11-29T00:50:41.454Z,10.40
2022-11-29T00:53:08.622Z,9.60
2022-11-29T00:55:35.788Z,9.17
2022-11-29T00:58:02.901Z,9.40
2022-11-29T01:00:30.273Z,9.53
2022-11-29T01:02:57.351Z,10.10
2022-11-29T01:05:24.541Z,8.53
2022-11-29T01:07:51.637Z,8.13
2022-11-29T01:10:18.844Z,8.20
2022-11-29T01:12:46.222Z,7.97
2022-11-29T01:15:13.693Z,7.83
2022-11-29T01:17:41.312Z,7.57
2022-11-29T01:20:09.276Z,7.57
2022-11-29T01:22:36.505Z,7.87
2022-11-29T01:25:03.883Z,8.33
2022-11-29T01:27:30.999Z,7.90
2022-11-29T01:29:58.039Z,8.00
2022-11-29T01:32:25.424Z,7.07
2022-11-29T01:34:52.781Z,7.20
2022-11-29T01:37:19.995Z,9.20
2022-11-29T01:39:47.090Z,8.83
2022-11-29T01:42:14.370Z,9.30
2022-11-29T01:44:50.678Z,8.40
2022-11-29T01:47:18.490Z,8.20
2022-11-29T01:49:46.875Z,8.83
2022-11-29T01:52:15.858Z,8.50
2022-11-29T01:54:45.392Z,7.63
2022-11-29T01:57:12.835Z,7.27
2022-11-29T01:59:42.412Z,7.37
2022-11-29T02:02:14.218Z,7.37
2022-11-29T02:04:42.697Z,7.20
2022-11-29T02:07:10.274Z,7.27
2022-11-29T02:09:37.486Z,7.83
2022-11-29T02:12:31.445Z,7.73
2022-11-29T02:15:23.107Z,7.80
2022-11-29T02:18:05.747Z,7.97
2022-11-29T02:20:38.848Z,7.07
2022-11-29T02:23:05.870Z,6.87
2022-11-29T02:25:51.899Z,7.30
2022-11-29T02:28:30.624Z,6.70
2022-11-29T02:31:34.647Z,7.17
2022-11-29T02:34:07.739Z,8.30
2022-11-29T02:36:49.714Z,7.63
2022-11-29T02:39:54.325Z,8.57
2022-11-29T02:42:26.218Z,8.57
2022-11-29T02:45:10.686Z,9.17
2022-11-29T02:48:00.567Z,9.00
2022-11-29T02:50:38.813Z,8.67
2022-11-29T02:53:21.776Z,9.60
2022-11-29T02:55:53.888Z,9.83
2022-11-29T02:58:45.558Z,10.50
2022-11-29T03:01:50.903Z,10.67
2022-11-29T03:04:34.437Z,10.80
2022-11-29T03:07:25.134Z,11.03
2022-11-29T03:10:06.509Z,10.67
2022-11-29T03:12:41.358Z,11.70
2022-11-29T03:15:26.970Z,10.10
2022-11-29T03:18:18.321Z,10.83
2022-11-29T03:21:22.989Z,11.13
2022-11-29T03:23:59.356Z,9.27
2022-11-29T03:26:54.947Z,9.47
2022-11-29T03:29:29.562Z,9.80
2022-11-29T03:32:07.893Z,9.33
2022-11-29T03:34:47.067Z,10.77
2022-11-29T03:37:46.032Z,11.63
2022-11-29T03:40:19.294Z,8.73
2022-11-29T03:42:51.568Z,10.67
2022-11-29T03:45:42.892Z,10.33
2022-11-29T03:48:13.587Z,12.30
2022-11-29T03:50:55.607Z,9.70
2022-11-29T03:53:43.967Z,9.63
2022-11-29T03:56:31.066Z,9.57
2022-11-29T03:59:09.257Z,9.87
2022-11-29T04:02:07.212Z,10.53
2022-11-29T04:04:52.975Z,11.00
2022-11-29T04:07:56.393Z,11.30
2022-11-29T04:10:36.265Z,11.07
2022-11-29T04:13:19.244Z,11.23
2022-11-29T04:15:58.400Z,11.73
2022-11-29T04:18:50.283Z,11.70
2022-11-29T04:21:44.983Z,10.40
2022-11-29T04:24:32.968Z,11.27
2022-11-29T04:27:05.460Z,12.03
2022-11-29T04:29:48.421Z,10.63
2022-11-29T04:32:43.417Z,10.83
2022-11-29T04:35:48.847Z,10.40
2022-11-29T04:38:28.807Z,9.17
2022-11-29T04:41:05.806Z,11.27
2022-11-29T04:43:57.463Z,11.27
2022-11-29T04:46:24.584Z,12.20
2022-11-29T04:49:00.455Z,12.33
2022-11-29T04:51:55.241Z,14.60
2022-11-29T04:54:47.513Z,12.97
2022-11-29T04:57:37.554Z,13.93
2022-11-29T05:00:12.638Z,13.03
2022-11-29T05:02:59.180Z,12.97
2022-11-29T05:05:48.103Z,12.97
2022-11-29T05:08:46.237Z,12.77
2022-11-29T05:11:41.461Z,12.07
2022-11-29T05:14:17.740Z,11.77
2022-11-29T05:17:25.642Z,12.37
2022-11-29T05:20:20.800Z,13.77
2022-11-29T05:23:29.659Z,13.47
2022-11-29T05:26:18.732Z,12.60
2022-11-29T05:28:51.244Z,13.93
2022-11-29T05:31:27.459Z,20.10
2022-11-29T05:34:17.093Z,15.97
2022-11-29T05:36:50.543Z,14.13
2022-11-29T05:39:44.290Z,12.37
2022-11-29T05:42:29.442Z,12.33
2022-11-29T05:45:17.380Z,12.73
2022-11-29T05:47:52.965Z,14.03
2022-11-29T05:50:33.700Z,13.20
2022-11-29T05:53:28.806Z,12.00
2022-11-29T05:56:15.797Z,12.23
2022-11-29T05:58:59.696Z,11.90
2022-11-29T06:01:33.191Z,13.20
2022-11-29T06:04:22.448Z,13.13
2022-11-29T06:07:03.833Z,12.13
2022-11-29T06:09:38.160Z,12.93
2022-11-29T06:12:15.799Z,12.70
2022-11-29T06:14:45.449Z,12.13
2022-11-29T06:17:52.577Z,12.37
2022-11-29T06:20:39.180Z,12.33
2022-11-29T06:23:06.241Z,11.87
2022-11-29T06:26:00.637Z,12.60
2022-11-29T06:28:38.695Z,12.97
2022-11-29T06:31:26.012Z,13.87
2022-11-29T06:34:01.267Z,13.87
2022-11-29T06:36:34.728Z,14.23
2022-11-29T06:39:02.061Z,14.27
2022-11-29T06:41:29.557Z,14.13
2022-11-29T06:43:57.097Z,12.70
2022-11-29T06:46:28.136Z,12.97
2022-11-29T06:49:02.077Z,13.70
2022-11-29T06:51:40.621Z,12.03
2022-11-29T06:54:23.581Z,11.23
2022-11-29T06:56:50.504Z,11.87
2022-11-29T06:59:49.443Z,11.90
2022-11-29T07:02:49.018Z,11.37
2022-11-29T07:05:19.415Z,13.47
2022-11-29T07:07:48.658Z,16.40
2022-11-29T07:10:19.946Z,12.27
2022-11-29T07:12:49.267Z,12.70
2022-11-29T07:15:18.432Z,12.80
2022-11-29T07:17:58.969Z,15.40
2022-11-29T07:20:31.953Z,11.60
2022-11-29T07:23:17.969Z,11.67
2022-11-29T07:26:09.789Z,11.70
2022-11-29T07:28:43.336Z,11.97
2022-11-29T07:31:33.726Z,12.27
2022-11-29T07:34:10.696Z,13.57
2022-11-29T07:36:43.557Z,14.37
2022-11-29T07:39:18.675Z,11.40
2022-11-29T07:41:56.914Z,11.60
2022-11-29T07:44:36.042Z,10.93
2022-11-29T07:47:03.394Z,11.83
2022-11-29T07:49:30.574Z,10.87
2022-11-29T07:51:57.777Z,11.83
2022-11-29T07:54:24.867Z,12.43
2022-11-29T07:56:51.839Z,11.40
2022-11-29T07:59:19.146Z,14.27
2022-11-29T08:01:46.315Z,11.10
2022-11-29T08:04:14.226Z,11.20
2022-11-29T08:06:41.670Z,10.27
2022-11-29T08:09:08.799Z,11.17
2022-11-29T08:11:36.145Z,11.33
2022-11-29T08:14:04.562Z,11.43
2022-11-29T08:16:32.041Z,11.43
2022-11-29T08:18:59.369Z,10.63
2022-11-29T08:21:26.678Z,10.37
2022-11-29T08:23:53.887Z,15.00
2022-11-29T08:26:21.226Z,11.20
2022-11-29T08:28:54.528Z,10.40
2022-11-29T08:31:21.923Z,10.83
2022-11-29T08:33:49.266Z,9.60
2022-11-29T08:36:18.587Z,11.13
2022-11-29T08:38:45.951Z,10.27
2022-11-29T08:41:14.233Z,9.87
2022-11-29T08:43:41.842Z,10.40
2022-11-29T08:46:13.671Z,10.00
2022-11-29T08:48:43.973Z,9.30
2022-11-29T08:51:11.107Z,8.60
2022-11-29T08:53:46.591Z,9.17
2022-11-29T08:57:04.874Z,9.80
2022-11-29T08:59:08.169Z,9.47
2022-11-29T09:01:35.423Z,9.17
2022-11-29T09:04:02.996Z,9.67
2022-11-29T09:06:34.972Z,10.07
2022-11-29T09:09:02.119Z,9.77
2022-11-29T09:11:29.570Z,9.37
2022-11-29T09:13:58.692Z,9.07
2022-11-29T09:16:27.496Z,10.20
2022-11-29T09:18:56.233Z,10.20
2022-11-29T09:21:27.292Z,11.07
2022-11-29T09:23:58.937Z,12.13
2022-11-29T09:26:28.237Z,11.23
2022-11-29T09:28:55.500Z,11.43
2022-11-29T09:31:22.636Z,10.53
2022-11-29T09:33:49.871Z,10.53
2022-11-29T09:36:17.067Z,10.30
2022-11-29T09:38:44.238Z,10.80
2022-11-29T09:41:48.340Z,10.53
2022-11-29T09:44:41.027Z,10.87
2022-11-29T09:47:31.491Z,9.43
2022-11-29T09:50:21.941Z,10.03
2022-11-29T09:52:51.870Z,9.33
2022-11-29T09:55:37.530Z,8.77
2022-11-29T09:58:04.855Z,9.40
2022-11-29T10:00:50.523Z,9.97
2022-11-29T10:03:25.666Z,9.10
2022-11-29T10:06:01.426Z,9.60
2022-11-29T10:08:36.997Z,9.40
2022-11-29T10:11:17.246Z,10.50
2022-11-29T10:13:48.418Z,10.37
2022-11-29T10:16:40.151Z,10.03
2022-11-29T10:19:25.797Z,11.03
2022-11-29T10:22:23.690Z,10.37
2022-11-29T10:24:52.783Z,8.23
2022-11-29T10:27:24.017Z,10.73
2022-11-29T10:29:51.511Z,10.13
2022-11-29T10:32:20.649Z,10.23
2022-11-29T10:34:50.827Z,10.40
2022-11-29T10:37:19.595Z,10.30
2022-11-29T10:39:58.874Z,9.70
2022-11-29T10:42:45.741Z,9.57
2022-11-29T10:45:35.262Z,10.07
2022-11-29T10:48:12.913Z,9.53
2022-11-29T10:50:41.992Z,9.43
2022-11-29T10:53:17.119Z,9.13
2022-11-29T10:56:07.655Z,9.03
2022-11-29T10:58:34.963Z,10.20
2022-11-29T11:01:06.961Z,10.23
2022-11-29T11:03:41.577Z,10.33
2022-11-29T11:06:12.470Z,10.00
2022-11-29T11:08:41.818Z,9.37
2022-11-29T11:11:09.050Z,10.27
2022-11-29T11:13:36.637Z,10.53
2022-11-29T11:16:22.452Z,9.60
2022-11-29T11:18:49.631Z,10.47
2022-11-29T11:21:18.590Z,11.33
2022-11-29T11:23:55.970Z,11.07
2022-11-29T11:26:23.274Z,10.57
2022-11-29T11:28:56.206Z,10.60
2022-11-29T11:31:34.768Z,10.17
2022-11-29T11:34:27.638Z,9.60
2022-11-29T11:37:11.756Z,9.67
2022-11-29T11:39:38.950Z,9.30
2022-11-29T11:42:24.831Z,10.07
2022-11-29T11:44:53.692Z,10.03
2022-11-29T11:47:22.736Z,10.10
2022-11-29T11:50:02.576Z,10.40
2022-11-29T11:52:30.495Z,10.73
2022-11-29T11:55:25.645Z,11.23
2022-11-29T11:58:14.735Z,12.10
2022-11-29T12:01:06.675Z,11.37
2022-11-29T12:03:43.553Z,12.20
2022-11-29T12:06:52.660Z,11.30
2022-11-29T12:09:49.805Z,11.70
2022-11-29T12:12:39.675Z,11.30
2022-11-29T12:15:16.496Z,12.20
2022-11-29T12:18:17.128Z,11.93
2022-11-29T12:21:01.720Z,12.57
2022-11-29T12:23:39.517Z,12.90
2022-11-29T12:26:41.178Z,12.23
2022-11-29T12:29:04.239Z,11.73
2022-11-29T12:31:37.986Z,12.53
2022-11-29T12:34:35.164Z,12.83
2022-11-29T12:37:13.705Z,13.87
2022-11-29T12:40:10.011Z,11.90
2022-11-29T12:42:53.108Z,11.77
2022-11-29T12:45:27.106Z,11.60
2022-11-29T12:48:13.929Z,11.40
2022-11-29T12:51:03.155Z,11.07
2022-11-29T12:53:34.569Z,11.03
2022-11-29T12:56:01.590Z,11.73
2022-11-29T12:58:46.015Z,11.10
2022-11-29T13:01:44.321Z,11.30
2022-11-29T13:04:25.545Z,11.77
2022-11-29T13:06:52.614Z,12.10
2022-11-29T13:09:22.558Z,12.63
2022-11-29T13:12:06.940Z,12.40
2022-11-29T13:14:59.478Z,12.83
2022-11-29T13:17:45.157Z,12.27
2022-11-29T13:20:18.126Z,13.57
2022-11-29T13:22:45.279Z,11.77
2022-11-29T13:25:33.992Z,13.73
2022-11-29T13:28:12.201Z,12.77
2022-11-29T13:30:39.358Z,14.17
2022-11-29T13:33:19.683Z,14.23
2022-11-29T13:36:08.829Z,14.90
2022-11-29T13:39:04.658Z,14.23
2022-11-29T13:41:40.609Z,14.07
2022-11-29T13:44:56.229Z,13.93
2022-11-29T13:47:23.400Z,15.07
2022-11-29T13:50:02.434Z,13.63
2022-11-29T13:52:44.010Z,13.80
2022-11-29T13:55:11.704Z,15.17
2022-11-29T14:00:45.469Z,14.23
2022-11-29T14:03:26.126Z,13.20
2022-11-29T14:06:02.290Z,13.30
2022-11-29T14:08:48.089Z,13.17
2022-11-29T14:11:52.654Z,14.40
2022-11-29T14:14:42.362Z,14.00
2022-11-29T14:17:47.629Z,14.97
2022-11-29T14:20:23.808Z,13.57
2022-11-29T14:23:06.091Z,14.97
2022-11-29T14:25:52.807Z,14.23
2022-11-29T14:28:23.269Z,14.87
2022-11-29T14:30:51.881Z,14.83
2022-11-29T14:33:36.235Z,13.60
2022-11-29T14:36:15.325Z,14.57
2022-11-29T14:38:55.591Z,15.60
2022-11-29T14:41:55.547Z,14.10
2022-11-29T14:44:26.028Z,14.13
2022-11-29T14:47:15.004Z,13.93
2022-11-29T14:49:43.725Z,14.93
2022-11-29T14:52:13.881Z,15.43
2022-11-29T14:55:15.900Z,13.03
2022-11-29T14:57:52.591Z,13.67
2022-11-29T15:00:23.846Z,12.67
2022-11-29T15:03:03.745Z,14.97
2022-11-29T15:05:55.611Z,13.93
2022-11-29T15:08:35.167Z,12.73
2022-11-29T15:11:15.050Z,13.07
2022-11-29T15:14:08.460Z,13.93
2022-11-29T15:17:01.545Z,13.87
2022-11-29T15:19:53.393Z,14.23
2022-11-29T15:22:21.223Z,14.10
2022-11-29T15:25:01.097Z,14.57
2022-11-29T15:27:28.367Z,15.17
2022-11-29T15:29:55.509Z,14.27
2022-11-29T15:32:31.123Z,14.17
2022-11-29T15:34:58.273Z,14.10
2022-11-29T15:37:34.297Z,13.50
2022-11-29T15:40:15.254Z,15.27
2022-11-29T15:42:54.689Z,14.73
2022-11-29T15:45:35.086Z,15.57
2022-11-29T15:48:25.197Z,31.63
2022-11-29T15:51:04.792Z,15.23
2022-11-29T15:53:47.390Z,14.43
2022-11-29T15:56:24.981Z,15.43
2022-11-29T15:58:52.779Z,14.57
2022-11-29T16:01:20.985Z,16.37
2022-11-29T16:03:51.020Z,16.67
2022-11-29T16:06:22.280Z,16.33
2022-11-29T16:08:49.642Z,16.60
2022-11-29T16:11:19.460Z,16.10
2022-11-29T16:14:03.599Z,17.97
2022-11-29T16:16:33.076Z,17.23
2022-11-29T16:19:23.898Z,17.23
2022-11-29T16:22:12.311Z,17.40
2022-11-29T16:24:52.972Z,18.33
2022-11-29T16:27:21.348Z,18.20
2022-11-29T16:29:48.573Z,20.57
2022-11-29T16:32:35.014Z,19.77
2022-11-29T16:35:13.255Z,19.73
2022-11-29T16:37:42.678Z,19.67
2022-11-29T16:40:29.715Z,21.20
2022-11-29T16:43:20.195Z,19.87
2022-11-29T16:45:47.290Z,19.57
2022-11-29T16:48:38.301Z,20.53
2022-11-29T16:51:12.692Z,20.33
2022-11-29T16:53:49.912Z,19.70
2022-11-29T16:56:18.247Z,17.87
2022-11-29T16:59:20.845Z,19.73
2022-11-29T17:01:35.119Z,19.30
2022-11-29T17:04:02.302Z,20.50
2022-11-29T17:06:29.432Z,19.13
2022-11-29T17:08:57.785Z,18.70
2022-11-29T17:11:25.216Z,18.37
2022-11-29T17:13:52.700Z,18.93
2022-11-29T17:16:21.475Z,19.07
2022-11-29T17:18:48.964Z,19.13
2022-11-29T17:21:20.459Z,19.07
2022-11-29T17:23:47.890Z,20.70
2022-11-29T17:26:15.631Z,19.73
2022-11-29T17:28:45.740Z,18.87
2022-11-29T17:31:14.128Z,18.47
2022-11-29T17:33:41.391Z,19.80
2022-11-29T17:36:10.346Z,19.40
2022-11-29T17:38:37.581Z,21.20
2022-11-29T17:41:08.758Z,21.30
2022-11-29T17:43:36.566Z,19.90
2022-11-29T17:46:10.845Z,21.00
2022-11-29T17:48:40.794Z,19.97
2022-11-29T17:51:28.781Z,17.53
2022-11-29T17:53:55.668Z,20.73
2022-11-29T17:56:25.889Z,20.63
2022-11-29T17:58:54.156Z,20.43
2022-11-29T18:01:23.505Z,20.27
2022-11-29T18:03:52.855Z,21.03
2022-11-29T18:06:21.376Z,21.07
2022-11-29T18:08:50.608Z,21.03
2022-11-29T18:11:31.511Z,19.33
2022-11-29T18:13:58.947Z,20.37
2022-11-29T18:16:27.865Z,19.63
2022-11-29T18:18:56.179Z,22.47
2022-11-29T18:21:23.487Z,21.10
2022-11-29T18:23:50.978Z,21.90
2022-11-29T18:26:22.459Z,20.47
2022-11-29T18:28:49.947Z,21.37
2022-11-29T18:31:24.908Z,20.87
2022-11-29T18:33:56.717Z,19.43
2022-11-29T18:36:32.046Z,19.60
2022-11-29T18:39:07.572Z,21.67
2022-11-29T18:41:35.223Z,22.17
2022-11-29T18:44:10.162Z,19.80
2022-11-29T18:46:37.935Z,20.13
2022-11-29T18:49:11.090Z,19.13
2022-11-29T18:51:38.553Z,20.03
2022-11-29T18:54:06.432Z,19.80
2022-11-29T18:56:34.883Z,18.10
2022-11-29T18:59:07.305Z,20.90
2022-11-29T19:01:35.649Z,20.03
2022-11-29T19:04:02.937Z,21.40
2022-11-29T19:06:39.260Z,21.03
2022-11-29T19:09:07.903Z,20.00
2022-11-29T19:11:35.151Z,20.03
2022-11-29T19:14:11.413Z,19.30
2022-11-29T19:16:40.028Z,19.30
2022-11-29T19:19:07.125Z,20.37
2022-11-29T19:21:37.303Z,19.80
2022-11-29T19:24:05.721Z,19.87
2022-11-29T19:26:33.200Z,19.37
2022-11-29T19:29:01.052Z,20.03
2022-11-29T19:31:28.711Z,19.40
2022-11-29T19:33:56.364Z,20.83
2022-11-29T19:36:25.547Z,21.37
2022-11-29T19:38:54.219Z,21.70
2022-11-29T19:41:30.039Z,20.60
2022-11-29T19:43:58.582Z,20.17
2022-11-29T19:46:34.135Z,20.00
2022-11-29T19:49:01.545Z,21.37
2022-11-29T19:51:29.600Z,22.20
2022-11-29T19:53:58.743Z,20.70
2022-11-29T19:56:25.842Z,20.77
2022-11-29T19:58:52.934Z,18.87
2022-11-29T20:01:25.388Z,19.80
2022-11-29T20:03:52.780Z,19.97
2022-11-29T20:06:19.954Z,20.30
2022-11-29T20:08:47.328Z,19.53
2022-11-29T20:11:19.365Z,20.70
2022-11-29T20:14:44.400Z,18.93
2022-11-29T20:21:02.068Z,20.00
2022-11-29T20:23:35.368Z,21.80
2022-11-29T20:26:02.724Z,16.93
2022-11-29T20:28:30.257Z,20.43
2022-11-29T20:30:57.429Z,19.53
2022-11-29T20:33:25.510Z,18.80
2022-11-29T20:36:16.537Z,20.67
2022-11-29T20:38:58.605Z,18.87
2022-11-29T20:41:28.852Z,18.77
2022-11-29T20:44:54.337Z,20.37
2022-11-29T20:47:25.965Z,20.60
2022-11-29T20:49:53.427Z,20.87
2022-11-29T20:52:29.997Z,20.37
2022-11-29T20:54:57.253Z,20.43
2022-11-29T20:57:24.567Z,19.33
2022-11-29T20:59:51.664Z,19.70
2022-11-29T21:05:17.152Z,19.97
2022-11-29T21:07:51.607Z,19.80
2022-11-29T21:11:14.715Z,20.23
2022-11-29T21:13:42.014Z,19.73
2022-11-29T21:16:11.576Z,19.87
2022-11-29T21:18:39.108Z,18.57
2022-11-29T21:21:23.558Z,18.73
2022-11-29T21:24:12.302Z,20.10
2022-11-29T21:26:44.925Z,18.57
2022-11-29T21:29:20.041Z,18.90
2022-11-29T21:31:48.504Z,20.07
2022-11-29T21:34:15.640Z,18.80
2022-11-29T21:36:43.243Z,19.60
2022-11-29T21:39:12.724Z,20.27
2022-11-29T21:41:39.729Z,19.13
2022-11-29T21:44:08.028Z,19.67
2022-11-29T21:46:35.687Z,19.00
2022-11-29T21:49:02.891Z,19.13
2022-11-29T21:51:29.943Z,19.03
2022-11-29T21:53:57.062Z,19.33
2022-11-29T21:56:24.211Z,18.33
2022-11-29T21:58:51.460Z,18.80
2022-11-29T22:01:19.861Z,19.47
2022-11-29T22:03:47.173Z,19.27
2022-11-29T22:06:16.714Z,19.80
2022-11-29T22:08:43.855Z,19.27
2022-11-29T22:11:15.216Z,18.50
2022-11-29T22:14:02.017Z,19.70
2022-11-29T22:16:29.691Z,18.37
2022-11-29T22:18:56.960Z,19.03
2022-11-29T22:21:24.296Z,18.90
2022-11-29T22:23:52.572Z,18.60
2022-11-29T22:26:19.847Z,19.27
2022-11-29T22:28:47.080Z,17.67
2022-11-29T22:31:14.243Z,18.03
2022-11-29T22:33:41.385Z,18.13
2022-11-29T22:36:10.624Z,18.60
2022-11-29T22:38:37.966Z,18.63
2022-11-29T22:41:09.709Z,17.80
2022-11-29T22:43:37.198Z,18.33
2022-11-29T22:46:18.810Z,17.27
2022-11-29T22:48:46.897Z,17.87
2022-11-29T22:51:15.491Z,18.43
2022-11-29T22:53:47.951Z,17.10
2022-11-29T22:56:15.145Z,19.03
2022-11-29T22:58:42.442Z,18.17
2022-11-29T23:01:11.684Z,16.93
2022-11-29T23:03:53.236Z,17.43
2022-11-29T23:06:28.267Z,18.80
2022-11-29T23:08:56.938Z,17.77
2022-11-29T23:11:26.160Z,18.07
2022-11-29T23:13:53.640Z,18.13
2022-11-29T23:16:22.527Z,16.70
2022-11-29T23:18:49.754Z,17.00
2022-11-29T23:21:21.854Z,17.27
2022-11-29T23:23:54.503Z,17.67
2022-11-29T23:26:30.394Z,19.37
2022-11-29T23:28:58.234Z,17.23
2022-11-29T23:31:25.493Z,15.83
2022-11-29T23:33:52.777Z,17.30
2022-11-29T23:36:19.916Z,18.17
2022-11-29T23:38:47.052Z,18.13
2022-11-29T23:41:14.470Z,16.63
2022-11-29T23:43:42.127Z,16.90
2022-11-29T23:46:17.157Z,17.53
2022-11-29T23:48:44.460Z,15.70
2022-11-29T23:51:11.780Z,17.10
2022-11-29T23:53:39.447Z,17.03
2022-11-29T23:56:08.458Z,16.33
2022-11-29T23:58:35.544Z,16.47
